Rayford, Texas
Current Conditions -  °F | °C
As of 9:53 PM on Wednesday 28 Jan 2015 (Local Time) from KIAH Reporting Station
Clear Clear  
Wind Chill: 59°   Ceiling: Unl
Heat Index: 59°   Visibility: 10mi
Dew Point: 55°   Wind: 5mph
Humidity: 87%   Direction: 180°S
Pressure: 30.15"   Gusts: NA
Location:  30.0613°N, 95.3841°W
Report Text: KIAH 290353Z 18004KT 10SM CLR 15/13 A3015 RMK AO2 SLP210 T01500128
Loading
Personal Weather Stations






























Interactive Weather Map New forecast layout! Learn more

10-Day Weather Forecast

Advertisements
Track Severe Weather on mobile